x

Central Dixon Entrance Buoy (46145) Wave Buoy

3:00am - Tue 28th Apr 2015 All times are PDT. -7 hours from GMT.

  • Sig Wave height 8.9ft
  • Peak Period 6s
  • Wind
    36mph, 45mph gusts
  • Sea Temp 48°f
  • Air Temp 51°f
  • Sea Pressure 984mb
  • Central Dixon Entrance Buoy
  • Central Dixon Entrance Buoy

More Historic Weather Station data

Upgrade to MSW Pro to gain access to the past 30 days of data for over 8000 Wavebouys and Weather Stations around the globe.

Join Pro

Comparision Forecast

View Surf forecast
   
Tue 04/28 3:00am 9ft 6s 36 45 mph 984mb 48f 51f
1:00am 7ft 11s 27 36 mph 990.5mb 48f 51f
12:00am 6ft 11s 25 31 mph 992.8mb 48f 50f
Mon 04/27 11:00pm 5ft 11s 20 25 mph 995mb 48f 50f
9:00pm 5.5ft 10s 22 29 mph 998.5mb 48f 47f
4:00pm 6ft 11s 22 27 mph 1008.4mb 48f 44f
3:00pm 5ft 10s 22 27 mph 1009.5mb 48f 46f
2:00pm 5ft 11s 20 27 mph 1009.9mb 48f 48f
1:00pm 5ft 10s 13 18 mph 1010.8mb 48f 48f
12:00pm 5ft 11s 13 18 mph 1011.7mb 48f 48f
11:00am 4.5ft 11s 13 16 mph 1012.1mb 48f 48f
10:00am 5ft 11s 16 20 mph 1012.3mb 48f 47f
9:00am 4.5ft 10s 16 18 mph 1012.5mb 48f 47f
8:00am 4.5ft 11s 18 20 mph 1012.7mb 48f 46f
7:00am 4.5ft 11s 18 20 mph 1012.9mb 48f 46f
6:00am 4.5ft 10s 16 20 mph 1013.1mb 48f 46f
5:00am 4ft 11s 16 20 mph 1013.4mb 48f 46f
4:00am 4.5ft 11s 13 16 mph 1013.5mb 48f 46f
3:00am 5ft 11s 13 16 mph 1013.7mb 48f 46f
2:00am 4.5ft 11s 11 13 mph 1013.4mb 48f 46f
1:00am 5ft 11s 13
mph
1012.9mb 48f 46f
12:00am 5.5ft 10s 11 13 mph 1012.9mb 48f 47f
Sun 04/26 11:00pm 5ft 12s 9 13 mph 1012.4mb 48f 47f
10:00pm 4.5ft 11s 11 13 mph 1012mb 48f 47f
9:00pm 3.5ft 11s 4
mph
1011.5mb 48f 47f
8:00pm 4ft 13s 9
mph
1010.7mb 48f 47f
7:00pm 4ft 13s 18 22 mph 1010.3mb 48f 46f
6:00pm 4ft 12s 11 16 mph 1009.9mb 48f 48f
5:00pm 4ft 12s 13 16 mph 1009.7mb 48f 47f
4:00pm 4.5ft 10s 11 13 mph 1009.1mb 49f 46f
3:00pm 4.5ft 9s 7 9 mph 1007.8mb 49f 49f
2:00pm 4.5ft 7s 2 4 mph 1007.4mb 49f 50f
1:00pm 4.5ft 9s  -  2 mph 1006.8mb 49f 51f
12:00pm 5ft 6s 7 9 mph 1006mb 48f 49f
11:00am 6.5ft 7s 11 13 mph 1005.2mb 48f 48f
10:00am 8ft 7s 18 20 mph 1004.2mb 48f 47f
9:00am 10ft 7s 25 29 mph 1003.2mb 48f 48f
8:00am 10ft 7s 34 43 mph 1002.7mb 48f 48f
7:00am 10ft 7s 36 43 mph 1002.3mb 48f 47f
6:00am 9ft 7s 38 45 mph 1002.9mb 48f 47f
5:00am 9.5ft 6s 38 47 mph 1003.3mb 48f 48f
4:00am 8.5ft 6s 36 45 mph 1004mb 48f 48f
3:00am 7.5ft 6s 34 43 mph 1005.2mb 48f 49f
2:00am 7ft 6s 34 40 mph 1005.9mb 48f 49f
1:00am 6ft 6s 31 38 mph 1006.4mb 48f 49f
12:00am 6ft 5s 29 36 mph 1007mb 48f 49f
Sat 04/25 11:00pm 6ft 6s 27 34 mph 1007.6mb 48f 49f
10:00pm 5.5ft 5s 27 34 mph 1007.7mb 48f 49f
9:00pm 5ft 5s 25 31 mph 1008.3mb 48f 49f
8:00pm 4.5ft 5s 27 31 mph 1008.4mb 48f 49f
7:00pm 4.5ft 5s 22 27 mph 1009.2mb 48f 49f
6:00pm 3.5ft 4s 22 27 mph 1009.9mb 48f 50f
5:00pm 3.5ft 4s 20 25 mph 1010.4mb 48f 49f
4:00pm 3.5ft 4s 18 22 mph 1011.3mb 49f 50f
3:00pm 3ft 9s 18 22 mph 1011.8mb 48f 50f
2:00pm 2.5ft 8s 18 22 mph 1012.2mb 48f 49f
1:00pm 2.5ft 9s 18 20 mph 1012.8mb 48f 49f
12:00pm 2.5ft 9s 13 18 mph 1012.8mb 48f 49f
11:00am 2.5ft 9s 13 16 mph 1012.9mb 48f 48f
10:00am 2.5ft 8s 11 16 mph 1012.9mb 48f 47f
9:00am 2.5ft 8s 9 11 mph 1012.7mb 48f 47f
8:00am 3ft 8s 7 9 mph 1013.1mb 48f 46f
7:00am 3ft 10s 7 9 mph 1012.7mb 48f 47f
6:00am 3ft 8s 9
mph
1012.3mb 48f 46f
5:00am 3.5ft 9s 9
mph
1012.5mb 48f 47f
4:00am 3.5ft 9s 11 13 mph 1012.1mb 48f 47f
3:00am 3.5ft 9s 11 13 mph 1011.8mb 48f 47f
2:00am 3.5ft 10s 11 13 mph 1011.6mb 48f 47f
1:00am 4ft 10s 13 16 mph 1011.5mb 48f 48f
12:00am 3.5ft 10s 13 16 mph 1011.4mb 48f 48f
Fri 04/24 11:00pm 4ft 10s 13 18 mph 1011.1mb 48f 48f
10:00pm 4ft 11s 16 18 mph 1010.4mb 48f 48f
9:00pm 4.5ft 10s 16 20 mph 1009.8mb 48f 48f
8:00pm 5ft 10s 18 20 mph 1009.4mb 48f 48f
7:00pm 5ft 10s 18 22 mph 1009mb 48f 48f
6:00pm 5ft 10s 16 20 mph 1008.8mb 48f 48f
5:00pm 4.5ft 10s 16 18 mph 1008.5mb 48f 49f
4:00pm 4.5ft 11s 13 18 mph 1008.2mb 48f 49f
3:00pm 5ft 10s 16 18 mph 1007.9mb 48f 48f
2:00pm 5ft 10s 13 18 mph 1007.7mb 48f 48f
1:00pm 5ft 10s 16 20 mph 1007.3mb 48f 48f